Accueil
METAR-TAF:

METAR-TAF

Aéroports :

Aéroport de Venise-Marco-Polo

Venise, Italie

latitude: 45-30N, longitude: 012-20E, altitude: 2 m

Observation

Le bulletin a été fait il y a 19 minutes, à 05:50 UTC
Vent 1 kt de direction variable
Température 15°C
Humidité 94%
Pression 1011 hPa
Visibilité 10 km ou plus
pas de nuages en-dessous de 1500 mètres et pas de cumulonimbus.

METAR: LIPZ 200550Z VRB01KT CAVOK 15/14 Q1011 NOSIG

Heure: 08:09 (06:09 UTC)

Prévision

Le bulletin a été fait il y a 1 heure et 9 minutes, à 05:00 UTC
Prévision valable du 20 à 06 UTC au 21 à 12 UTC
Vent 10 kt de nord/nord-est
Visibilité 10 km ou plus
Nuages fragmentés à une hauteur de 4000 ft
Evoluant progressivement
du 20 à 07 UTC au 20 à 09 UTC
Vent 10 kt de est
Probabilité 30% :
Temporairement
du 20 à 12 UTC au 20 à 24 UTC
orage, pluie

TAF: LIPZ 200500Z 2006/2112 02010KT 9999 BKN040 BECMG 2007/2009 08010KT PROB30 TEMPO 2012/2024 TSRA

Observations et prévisions météorologiques de plus de 4000 aéroports (messages METAR et TAF).

Les stations disponibles sont représentées par des disques jaunes et rouges sur la carte.

Passer la souris dessus pour voir le nom de la station.

Cliquer dessus pour voir les observations et prévisions météorologiques.

Pour changer de carte: cliquez sur les boutons verts avec une croix noire pour zoomer, sur le bouton vert avec un tiret pour effectuer un zoom arrière, ou sur les flèches vertes pour les cartes adjacentes.


METAR-TAF: